Time,TemperatureF,DewpointF,PressureIn,WindDirection,WindDirectionDegrees,WindSpeedMPH,WindSpeedGustMPH,Humidity,HourlyPrecipIn,Conditions,Clouds,dailyrainin,SolarRadiationWatts/m^2,SoftwareType,DateUTC
2013-03-07 00:01:00,45.0,40.0,-100.00,WNW,295,0.0,7.0,82,0.00,,,0.00,0.000000,,2013-03-07 08:01:00,
2013-03-07 00:11:00,45.0,40.0,-100.00,WNW,295,0.0,7.0,82,0.00,,,0.00,0.000000,,2013-03-07 08:11:00,
2013-03-07 00:44:00,46.0,41.0,-100.00,WSW,249,3.0,8.0,84,0.00,,,0.00,0.000000,,2013-03-07 08:44:00,
2013-03-07 00:53:00,46.0,41.0,-100.00,WSW,249,3.0,8.0,84,0.00,,,0.00,0.000000,,2013-03-07 08:53:00,
2013-03-07 01:02:00,46.0,41.0,-100.00,WSW,249,3.0,8.0,84,0.00,,,0.00,0.000000,,2013-03-07 09:02:00,
2013-03-07 01:11:00,46.0,41.0,-100.00,WSW,249,3.0,8.0,84,0.00,,,0.00,0.000000,,2013-03-07 09:11:00,
2013-03-07 01:43:00,45.0,42.0,-100.00,West,271,0.0,4.0,90,0.00,,,0.00,0.000000,,2013-03-07 09:43:00,
2013-03-07 01:53:00,45.0,42.0,-100.00,West,271,0.0,4.0,90,0.00,,,0.00,0.000000,,2013-03-07 09:53:00,
2013-03-07 02:02:00,45.0,42.0,-100.00,West,271,0.0,4.0,90,0.00,,,0.00,0.000000,,2013-03-07 10:02:00,
2013-03-07 02:11:00,45.0,42.0,-100.00,West,271,0.0,4.0,90,0.00,,,0.00,0.000000,,2013-03-07 10:11:00,
2013-03-07 02:43:00,44.0,42.0,-100.00,West,263,0.0,5.0,91,0.00,,,0.00,0.000000,,2013-03-07 10:43:00,
2013-03-07 02:53:00,44.0,42.0,-100.00,West,263,0.0,5.0,91,0.00,,,0.00,0.000000,,2013-03-07 10:53:00,
2013-03-07 03:02:00,44.0,42.0,-100.00,West,263,0.0,5.0,91,0.00,,,0.00,0.000000,,2013-03-07 11:02:00,
2013-03-07 03:11:00,44.0,42.0,-100.00,West,263,0.0,5.0,91,0.00,,,0.00,0.000000,,2013-03-07 11:11:00,
2013-03-07 03:44:00,45.0,43.0,-100.00,South,183,3.0,9.0,92,0.00,,,0.00,0.000000,,2013-03-07 11:44:00,
2013-03-07 03:54:00,45.0,43.0,-100.00,South,183,3.0,9.0,92,0.00,,,0.00,0.000000,,2013-03-07 11:54:00,
2013-03-07 04:02:00,45.0,43.0,-100.00,South,183,3.0,9.0,92,0.00,,,0.00,0.000000,,2013-03-07 12:02:00,
2013-03-07 04:11:00,45.0,43.0,-100.00,South,183,3.0,9.0,92,0.00,,,0.00,0.000000,,2013-03-07 12:11:00,
2013-03-07 04:34:00,44.0,44.0,-100.00,WNW,289,0.0,7.0,99,0.00,,,0.00,0.000000,,2013-03-07 12:34:00,
2013-03-07 04:43:00,44.0,44.0,-100.00,WNW,289,0.0,7.0,99,0.00,,,0.00,0.000000,,2013-03-07 12:43:00,
2013-03-07 04:52:00,44.0,44.0,-100.00,WNW,289,0.0,7.0,99,0.00,,,0.00,0.000000,,2013-03-07 12:52:00,
2013-03-07 05:02:00,44.0,44.0,-100.00,WNW,289,0.0,7.0,99,0.00,,,0.00,0.000000,,2013-03-07 13:02:00,
2013-03-07 05:12:00,44.0,44.0,-100.00,WNW,289,0.0,7.0,99,0.00,,,0.00,0.000000,,2013-03-07 13:12:00,
2013-03-07 05:42:00,45.0,45.0,-100.00,West,271,2.0,12.0,99,0.01,,,0.01,0.000000,,2013-03-07 13:42:00,
2013-03-07 05:53:00,45.0,45.0,-100.00,West,271,2.0,12.0,99,0.01,,,0.01,0.000000,,2013-03-07 13:53:00,
2013-03-07 06:01:00,45.0,45.0,-100.00,West,271,2.0,12.0,99,0.01,,,0.01,0.000000,,2013-03-07 14:01:00,
2013-03-07 06:33:00,45.0,45.0,-100.00,WSW,251,6.0,12.0,100,0.02,,,0.03,0.000000,,2013-03-07 14:33:00,
2013-03-07 06:43:00,45.0,45.0,-100.00,WSW,251,6.0,12.0,100,0.02,,,0.03,0.000000,,2013-03-07 14:43:00,
2013-03-07 06:53:00,45.0,45.0,-100.00,WSW,251,6.0,12.0,100,0.02,,,0.03,0.000000,,2013-03-07 14:53:00,
2013-03-07 07:02:00,45.0,45.0,-100.00,WSW,251,6.0,12.0,100,0.02,,,0.03,0.000000,,2013-03-07 15:02:00,
2013-03-07 07:11:00,45.0,45.0,-100.00,WSW,251,6.0,12.0,100,0.02,,,0.03,0.000000,,2013-03-07 15:11:00,
2013-03-07 07:43:00,46.0,46.0,-100.00,SSW,212,0.0,5.0,100,0.01,,,0.04,28.000000,,2013-03-07 15:43:00,
2013-03-07 07:53:00,46.0,46.0,-100.00,SSW,212,0.0,5.0,100,0.01,,,0.04,28.000000,,2013-03-07 15:53:00,
2013-03-07 08:01:00,46.0,46.0,-100.00,SSW,212,0.0,5.0,100,0.01,,,0.04,28.000000,,2013-03-07 16:01:00,
2013-03-07 08:11:00,46.0,46.0,-100.00,SSW,212,0.0,5.0,100,0.01,,,0.04,28.000000,,2013-03-07 16:11:00,
2013-03-07 08:43:00,48.0,47.0,-100.00,WSW,243,3.0,8.0,97,0.00,,,0.04,170.000000,,2013-03-07 16:43:00,
2013-03-07 08:53:00,48.0,47.0,-100.00,WSW,243,3.0,8.0,97,0.00,,,0.04,170.000000,,2013-03-07 16:53:00,
2013-03-07 09:01:00,48.0,47.0,-100.00,WSW,243,3.0,8.0,97,0.00,,,0.04,170.000000,,2013-03-07 17:01:00,
2013-03-07 09:11:00,48.0,47.0,-100.00,WSW,243,3.0,8.0,97,0.00,,,0.04,170.000000,,2013-03-07 17:11:00,
2013-03-07 09:44:00,49.0,48.0,-100.00,SSW,210,3.0,7.0,95,0.01,,,0.05,168.000000,,2013-03-07 17:44:00,
2013-03-07 10:02:00,49.0,48.0,-100.00,SSW,210,3.0,7.0,95,0.01,,,0.05,168.000000,,2013-03-07 18:02:00,
2013-03-07 10:11:00,49.0,48.0,-100.00,SSW,210,3.0,7.0,95,0.01,,,0.05,168.000000,,2013-03-07 18:11:00,
2013-03-07 10:32:00,48.0,46.0,-100.00,WSW,257,5.0,15.0,94,0.01,,,0.06,302.000000,,2013-03-07 18:32:00,
2013-03-07 10:42:00,48.0,46.0,-100.00,WSW,257,5.0,15.0,94,0.01,,,0.06,302.000000,,2013-03-07 18:42:00,
2013-03-07 10:52:00,48.0,46.0,-100.00,WSW,257,5.0,15.0,94,0.01,,,0.06,302.000000,,2013-03-07 18:52:00,
2013-03-07 11:02:00,48.0,46.0,-100.00,WSW,257,5.0,15.0,94,0.01,,,0.06,302.000000,,2013-03-07 19:02:00,
2013-03-07 11:11:00,48.0,46.0,-100.00,WSW,257,5.0,15.0,94,0.01,,,0.06,302.000000,,2013-03-07 19:11:00,
2013-03-07 11:35:00,52.0,49.0,-100.00,WNW,283,4.0,11.0,88,0.00,,,0.06,354.000000,,2013-03-07 19:35:00,
2013-03-07 11:44:00,52.0,49.0,-100.00,WNW,283,4.0,11.0,88,0.00,,,0.06,354.000000,,2013-03-07 19:44:00,
2013-03-07 11:52:00,52.0,49.0,-100.00,WNW,283,4.0,11.0,88,0.00,,,0.06,354.000000,,2013-03-07 19:52:00,
2013-03-07 12:01:00,52.0,49.0,-100.00,WNW,283,4.0,11.0,88,0.00,,,0.06,354.000000,,2013-03-07 20:01:00,
2013-03-07 12:43:00,52.0,48.0,-100.00,West,268,6.0,11.0,86,0.00,,,0.06,370.000000,,2013-03-07 20:43:00,
2013-03-07 12:54:00,52.0,48.0,-100.00,West,268,6.0,11.0,86,0.00,,,0.06,370.000000,,2013-03-07 20:54:00,
2013-03-07 13:02:00,52.0,48.0,-100.00,West,268,6.0,11.0,86,0.00,,,0.06,370.000000,,2013-03-07 21:02:00,
2013-03-07 13:11:00,52.0,48.0,-100.00,West,268,6.0,11.0,86,0.00,,,0.06,370.000000,,2013-03-07 21:11:00,
2013-03-07 13:43:00,50.0,48.0,-100.00,WNW,298,7.0,16.0,92,0.00,,,0.06,264.000000,,2013-03-07 21:43:00,
2013-03-07 13:52:00,50.0,48.0,-100.00,WNW,298,7.0,16.0,92,0.00,,,0.06,264.000000,,2013-03-07 21:52:00,
2013-03-07 14:01:00,50.0,48.0,-100.00,WNW,298,7.0,16.0,92,0.00,,,0.06,264.000000,,2013-03-07 22:01:00,
2013-03-07 14:11:00,50.0,48.0,-100.00,WNW,298,7.0,16.0,92,0.00,,,0.06,264.000000,,2013-03-07 22:11:00,
2013-03-07 14:33:00,46.0,44.0,-100.00,West,259,14.0,27.0,91,0.04,,,0.10,244.000000,,2013-03-07 22:33:00,
2013-03-07 14:43:00,46.0,44.0,-100.00,West,259,14.0,27.0,91,0.04,,,0.10,244.000000,,2013-03-07 22:43:00,
2013-03-07 14:54:00,46.0,44.0,-100.00,West,259,14.0,27.0,91,0.04,,,0.10,244.000000,,2013-03-07 22:54:00,
2013-03-07 15:02:00,46.0,44.0,-100.00,West,259,14.0,27.0,91,0.04,,,0.10,244.000000,,2013-03-07 23:02:00,
2013-03-07 15:12:00,46.0,44.0,-100.00,West,259,14.0,27.0,91,0.04,,,0.10,244.000000,,2013-03-07 23:12:00,
2013-03-07 15:34:00,49.0,47.0,-100.00,WNW,297,6.0,17.0,92,0.02,,,0.12,235.000000,,2013-03-07 23:34:00,
2013-03-07 15:53:00,49.0,47.0,-100.00,WNW,297,6.0,17.0,92,0.02,,,0.12,235.000000,,2013-03-07 23:53:00,
2013-03-07 16:02:00,49.0,47.0,-100.00,WNW,297,6.0,17.0,92,0.02,,,0.12,235.000000,,2013-03-08 00:02:00,
2013-03-07 16:11:00,49.0,47.0,-100.00,WNW,297,6.0,17.0,92,0.02,,,0.12,235.000000,,2013-03-08 00:11:00,
2013-03-07 16:34:00,47.0,46.0,-100.00,WSW,247,5.0,16.0,96,0.11,,,0.23,72.000000,,2013-03-08 00:34:00,
2013-03-07 16:44:00,47.0,46.0,-100.00,WSW,247,5.0,16.0,96,0.11,,,0.23,72.000000,,2013-03-08 00:44:00,
2013-03-07 16:53:00,47.0,46.0,-100.00,WSW,247,5.0,16.0,96,0.11,,,0.23,72.000000,,2013-03-08 00:53:00,
2013-03-07 17:01:00,47.0,46.0,-100.00,WSW,247,5.0,16.0,96,0.11,,,0.23,72.000000,,2013-03-08 01:01:00,
2013-03-07 17:11:00,47.0,46.0,-100.00,WSW,247,5.0,16.0,96,0.11,,,0.23,72.000000,,2013-03-08 01:11:00,
2013-03-07 17:42:00,47.0,45.0,-100.00,SW,218,7.0,12.0,94,0.00,,,0.23,75.000000,,2013-03-08 01:42:00,
2013-03-07 17:52:00,47.0,45.0,-100.00,SW,218,7.0,12.0,94,0.00,,,0.23,75.000000,,2013-03-08 01:52:00,
2013-03-07 18:01:00,47.0,45.0,-100.00,SW,218,7.0,12.0,94,0.00,,,0.23,75.000000,,2013-03-08 02:01:00,
2013-03-07 18:11:00,47.0,45.0,-100.00,SW,218,7.0,12.0,94,0.00,,,0.23,75.000000,,2013-03-08 02:11:00,
2013-03-07 18:42:00,44.0,42.0,-100.00,SW,218,5.0,11.0,92,0.00,,,0.23,13.000000,,2013-03-08 02:42:00,
2013-03-07 18:52:00,44.0,42.0,-100.00,SW,218,5.0,11.0,92,0.00,,,0.23,13.000000,,2013-03-08 02:52:00,
2013-03-07 19:02:00,44.0,42.0,-100.00,SW,218,5.0,11.0,92,0.00,,,0.23,13.000000,,2013-03-08 03:02:00,
2013-03-07 19:11:00,44.0,42.0,-100.00,SW,218,5.0,11.0,92,0.00,,,0.23,13.000000,,2013-03-08 03:11:00,
2013-03-07 19:33:00,43.0,40.0,-100.00,SW,217,7.0,12.0,89,0.00,,,0.23,0.000000,,2013-03-08 03:33:00,
2013-03-07 19:43:00,43.0,40.0,-100.00,SW,217,7.0,12.0,89,0.00,,,0.23,0.000000,,2013-03-08 03:43:00,
2013-03-07 19:52:00,43.0,40.0,-100.00,SW,217,7.0,12.0,89,0.00,,,0.23,0.000000,,2013-03-08 03:52:00,
2013-03-07 20:01:00,43.0,40.0,-100.00,SW,217,7.0,12.0,89,0.00,,,0.23,0.000000,,2013-03-08 04:01:00,
2013-03-07 20:11:00,43.0,40.0,-100.00,SW,217,7.0,12.0,89,0.00,,,0.23,0.000000,,2013-03-08 04:11:00,
2013-03-07 20:32:00,43.0,41.0,-100.00,SSW,208,4.0,11.0,92,0.00,,,0.23,0.000000,,2013-03-08 04:32:00,
2013-03-07 20:42:00,43.0,41.0,-100.00,SSW,208,4.0,11.0,92,0.00,,,0.23,0.000000,,2013-03-08 04:42:00,
2013-03-07 20:52:00,43.0,41.0,-100.00,SSW,208,4.0,11.0,92,0.00,,,0.23,0.000000,,2013-03-08 04:52:00,
2013-03-07 21:01:00,43.0,41.0,-100.00,SSW,208,4.0,11.0,92,0.00,,,0.23,0.000000,,2013-03-08 05:01:00,
2013-03-07 21:12:00,43.0,41.0,-100.00,SSW,208,4.0,11.0,92,0.00,,,0.23,0.000000,,2013-03-08 05:12:00,
2013-03-07 21:33:00,42.0,40.0,-100.00,East,95,3.0,6.0,92,0.00,,,0.23,0.000000,,2013-03-08 05:33:00,
2013-03-07 21:42:00,42.0,40.0,-100.00,East,95,3.0,6.0,92,0.00,,,0.23,0.000000,,2013-03-08 05:42:00,
2013-03-07 21:52:00,42.0,40.0,-100.00,East,95,3.0,6.0,92,0.00,,,0.23,0.000000,,2013-03-08 05:52:00,
2013-03-07 22:01:00,42.0,40.0,-100.00,East,95,3.0,6.0,92,0.00,,,0.23,0.000000,,2013-03-08 06:01:00,
2013-03-07 22:11:00,42.0,40.0,-100.00,East,95,3.0,6.0,92,0.00,,,0.23,0.000000,,2013-03-08 06:11:00,
2013-03-07 22:32:00,41.0,38.0,-100.00,North,4,1.0,5.0,88,0.00,,,0.23,0.000000,,2013-03-08 06:32:00,
2013-03-07 22:42:00,41.0,38.0,-100.00,North,4,1.0,5.0,88,0.00,,,0.23,0.000000,,2013-03-08 06:42:00,
2013-03-07 22:52:00,41.0,38.0,-100.00,North,4,1.0,5.0,88,0.00,,,0.23,0.000000,,2013-03-08 06:52:00,
2013-03-07 23:01:00,41.0,38.0,-100.00,North,4,1.0,5.0,88,0.00,,,0.23,0.000000,,2013-03-08 07:01:00,
2013-03-07 23:11:00,41.0,38.0,-100.00,North,4,1.0,5.0,88,0.00,,,0.23,0.000000,,2013-03-08 07:11:00,
2013-03-07 23:32:00,41.0,39.0,-100.00,NNE,22,4.0,7.0,91,0.00,,,0.23,0.000000,,2013-03-08 07:32:00,
2013-03-07 23:42:00,41.0,39.0,-100.00,NNE,22,4.0,7.0,91,0.00,,,0.23,0.000000,,2013-03-08 07:42:00,
2013-03-07 23:52:00,41.0,39.0,-100.00,NNE,22,4.0,7.0,91,0.00,,,0.23,0.000000,,2013-03-08 07:52:00,